首页
METAR-TAF:

METAR-TAF

机场 :

Mount Airy/Surry County Airport

芒特艾里, 北卡罗来纳州, 美国

纬度: 36-27-35N, 经度: 080-33-11W, 海拔: 380米

当前天气观测

该预报发布于27分钟前的21:15 UTC
风速7节,风向西转西南,有时为15节阵风
温度 29°C
湿度 45%
气压 1012 hPa
能見度: 16.1公里
天空无云

METAR: KMWK 292115Z AUTO 25007G15KT 10SM CLR 29/16 A2989 RMK AO2 T02870156

时间: 17:42 (21:42 UTC)


TAF: 丢失

超过4000个机场的气象观测和天气预报(METAR&TAF报告)。

可查询的气象台以黄色和红色小点在地图上表示。

将鼠标移到小点上方,可查看气象台名称。

然后点击查看天气观测和预报。

如需切换地图:点击带黑十字的绿色按钮放大地图;点击带横线的绿色按钮缩小地图;或者点击绿色箭头查看邻近地区的地图。


METAR-TAF: